sensor_id;sensor_type;location;lat;lon;timestamp;noise_LAeq;noise_LA_min;noise_LA_max;noise_LA01;noise_LA95
74470;Laerm;62918;55.706;37.816;2023-08-08T00:00:00;53.48;47.83;60.17;;
74470;Laerm;62918;55.706;37.816;2023-08-08T00:00:30;53.45;48.85;65.79;;
74470;Laerm;62918;55.706;37.816;2023-08-08T00:01:01;54.13;48.19;60.44;;
74470;Laerm;62918;55.706;37.816;2023-08-08T00:01:32;53.46;50.45;65.72;;
74470;Laerm;62918;55.706;37.816;2023-08-08T00:02:03;52.25;50.00;55.23;;
74470;Laerm;62918;55.706;37.816;2023-08-08T00:02:33;55.57;49.95;62.47;;
74470;Laerm;62918;55.706;37.816;2023-08-08T00:03:04;54.51;50.08;61.63;;
74470;Laerm;62918;55.706;37.816;2023-08-08T00:03:34;54.19;51.10;61.43;;
74470;Laerm;62918;55.706;37.816;2023-08-08T00:04:05;53.28;48.23;58.14;;
74470;Laerm;62918;55.706;37.816;2023-08-08T00:04:36;52.30;49.07;67.88;;
74470;Laerm;62918;55.706;37.816;2023-08-08T00:05:06;54.23;50.51;58.93;;
74470;Laerm;62918;55.706;37.816;2023-08-08T00:05:37;56.40;50.44;61.73;;
74470;Laerm;62918;55.706;37.816;2023-08-08T00:06:08;54.37;50.03;63.10;;
74470;Laerm;62918;55.706;37.816;2023-08-08T00:06:38;55.41;50.21;61.76;;
74470;Laerm;62918;55.706;37.816;2023-08-08T00:07:09;54.31;50.26;59.63;;
74470;Laerm;62918;55.706;37.816;2023-08-08T00:07:39;56.19;50.05;61.04;;
74470;Laerm;62918;55.706;37.816;2023-08-08T00:08:10;55.12;51.02;66.58;;
74470;Laerm;62918;55.706;37.816;2023-08-08T00:08:41;58.93;50.13;67.90;;
74470;Laerm;62918;55.706;37.816;2023-08-08T00:09:11;70.06;50.66;82.60;;
74470;Laerm;62918;55.706;37.816;2023-08-08T00:09:42;62.62;51.32;79.07;;
74470;Laerm;62918;55.706;37.816;2023-08-08T00:10:12;53.95;50.32;60.79;;
74470;Laerm;62918;55.706;37.816;2023-08-08T00:10:43;62.05;52.70;70.24;;
74470;Laerm;62918;55.706;37.816;2023-08-08T00:11:14;53.06;48.58;59.12;;
74470;Laerm;62918;55.706;37.816;2023-08-08T00:11:45;53.33;50.08;60.94;;
74470;Laerm;62918;55.706;37.816;2023-08-08T00:12:15;53.39;50.07;58.59;;
74470;Laerm;62918;55.706;37.816;2023-08-08T00:12:46;55.56;50.63;68.04;;
74470;Laerm;62918;55.706;37.816;2023-08-08T00:13:17;52.93;49.33;60.60;;
74470;Laerm;62918;55.706;37.816;2023-08-08T00:13:47;55.22;50.16;60.04;;
74470;Laerm;62918;55.706;37.816;2023-08-08T00:14:18;53.02;50.19;57.38;;
74470;Laerm;62918;55.706;37.816;2023-08-08T00:14:48;52.35;49.72;58.23;;
74470;Laerm;62918;55.706;37.816;2023-08-08T00:15:19;52.88;48.91;56.11;;
74470;Laerm;62918;55.706;37.816;2023-08-08T00:15:49;56.32;50.42;67.50;;
74470;Laerm;62918;55.706;37.816;2023-08-08T00:16:20;58.26;52.31;67.81;;
74470;Laerm;62918;55.706;37.816;2023-08-08T00:16:50;56.01;51.17;62.61;;
74470;Laerm;62918;55.706;37.816;2023-08-08T00:17:21;58.08;50.63;62.74;;
74470;Laerm;62918;55.706;37.816;2023-08-08T00:17:52;67.43;51.58;77.90;;
74470;Laerm;62918;55.706;37.816;2023-08-08T00:18:22;59.32;51.49;76.61;;
74470;Laerm;62918;55.706;37.816;2023-08-08T00:18:53;56.21;51.32;64.87;;
74470;Laerm;62918;55.706;37.816;2023-08-08T00:19:24;53.40;49.34;58.57;;
74470;Laerm;62918;55.706;37.816;2023-08-08T00:19:55;56.84;51.20;63.84;;
74470;Laerm;62918;55.706;37.816;2023-08-08T00:20:25;54.16;49.62;63.57;;
74470;Laerm;62918;55.706;37.816;2023-08-08T00:20:56;51.83;49.32;54.97;;
74470;Laerm;62918;55.706;37.816;2023-08-08T00:21:26;51.65;48.31;59.30;;
74470;Laerm;62918;55.706;37.816;2023-08-08T00:21:57;57.44;48.50;64.34;;
74470;Laerm;62918;55.706;37.816;2023-08-08T00:22:27;55.31;48.56;69.64;;
74470;Laerm;62918;55.706;37.816;2023-08-08T00:22:58;54.97;48.73;62.80;;
74470;Laerm;62918;55.706;37.816;2023-08-08T00:23:28;51.83;49.55;58.48;;
74470;Laerm;62918;55.706;37.816;2023-08-08T00:23:59;52.28;49.38;55.93;;
74470;Laerm;62918;55.706;37.816;2023-08-08T00:24:29;51.86;48.60;57.40;;
74470;Laerm;62918;55.706;37.816;2023-08-08T00:25:00;53.08;48.88;57.96;;
74470;Laerm;62918;55.706;37.816;2023-08-08T00:25:30;51.31;48.31;54.48;;
74470;Laerm;62918;55.706;37.816;2023-08-08T00:26:01;51.85;48.66;58.04;;
74470;Laerm;62918;55.706;37.816;2023-08-08T00:26:31;52.70;48.91;58.69;;
74470;Laerm;62918;55.706;37.816;2023-08-08T00:27:02;52.61;49.85;57.60;;
74470;Laerm;62918;55.706;37.816;2023-08-08T00:27:33;52.15;49.56;55.37;;
74470;Laerm;62918;55.706;37.816;2023-08-08T00:28:04;55.43;50.18;66.02;;
74470;Laerm;62918;55.706;37.816;2023-08-08T00:28:34;54.57;49.70;61.51;;
74470;Laerm;62918;55.706;37.816;2023-08-08T00:29:05;54.76;50.76;60.19;;
74470;Laerm;62918;55.706;37.816;2023-08-08T00:29:36;52.92;50.03;59.47;;
74470;Laerm;62918;55.706;37.816;2023-08-08T00:30:07;53.25;50.24;58.57;;
74470;Laerm;62918;55.706;37.816;2023-08-08T00:30:38;52.57;49.76;57.63;;
74470;Laerm;62918;55.706;37.816;2023-08-08T00:31:09;51.66;48.69;55.17;;
74470;Laerm;62918;55.706;37.816;2023-08-08T00:31:39;56.67;49.16;63.71;;
74470;Laerm;62918;55.706;37.816;2023-08-08T00:32:10;53.56;49.76;60.60;;
74470;Laerm;62918;55.706;37.816;2023-08-08T00:32:40;54.91;49.24;59.88;;
74470;Laerm;62918;55.706;37.816;2023-08-08T00:33:11;54.89;51.05;60.39;;
74470;Laerm;62918;55.706;37.816;2023-08-08T00:33:41;53.88;50.58;57.97;;
74470;Laerm;62918;55.706;37.816;2023-08-08T00:34:12;53.02;49.65;56.79;;
74470;Laerm;62918;55.706;37.816;2023-08-08T00:34:42;60.04;51.95;67.18;;
74470;Laerm;62918;55.706;37.816;2023-08-08T00:35:13;53.51;50.68;56.82;;
74470;Laerm;62918;55.706;37.816;2023-08-08T00:35:44;52.82;50.40;61.15;;
74470;Laerm;62918;55.706;37.816;2023-08-08T00:36:15;53.39;50.37;59.72;;
74470;Laerm;62918;55.706;37.816;2023-08-08T00:36:45;55.14;49.58;60.78;;
74470;Laerm;62918;55.706;37.816;2023-08-08T00:37:16;52.43;49.56;61.79;;
74470;Laerm;62918;55.706;37.816;2023-08-08T00:37:48;54.29;50.12;65.31;;
74470;Laerm;62918;55.706;37.816;2023-08-08T00:38:18;53.43;50.41;62.24;;
74470;Laerm;62918;55.706;37.816;2023-08-08T00:38:49;52.53;49.68;55.12;;
74470;Laerm;62918;55.706;37.816;2023-08-08T00:39:19;53.87;50.48;60.77;;
74470;Laerm;62918;55.706;37.816;2023-08-08T00:39:50;53.34;50.61;62.01;;
74470;Laerm;62918;55.706;37.816;2023-08-08T00:40:20;52.91;50.15;58.44;;
74470;Laerm;62918;55.706;37.816;2023-08-08T00:40:51;55.51;50.92;66.19;;
74470;Laerm;62918;55.706;37.816;2023-08-08T00:41:21;58.79;50.45;67.87;;
74470;Laerm;62918;55.706;37.816;2023-08-08T00:41:52;65.47;54.10;70.38;;
74470;Laerm;62918;55.706;37.816;2023-08-08T00:42:22;57.33;50.55;62.94;;
74470;Laerm;62918;55.706;37.816;2023-08-08T00:42:53;59.58;49.83;66.95;;
74470;Laerm;62918;55.706;37.816;2023-08-08T00:43:23;59.38;53.05;66.54;;
74470;Laerm;62918;55.706;37.816;2023-08-08T00:43:54;55.54;51.87;61.34;;
74470;Laerm;62918;55.706;37.816;2023-08-08T00:44:24;56.72;53.00;62.32;;
74470;Laerm;62918;55.706;37.816;2023-08-08T00:44:55;59.46;49.78;67.52;;
74470;Laerm;62918;55.706;37.816;2023-08-08T00:45:37;52.38;49.27;61.92;;
74470;Laerm;62918;55.706;37.816;2023-08-08T00:46:08;54.63;50.64;60.40;;
74470;Laerm;62918;55.706;37.816;2023-08-08T00:46:39;52.87;49.99;56.17;;
74470;Laerm;62918;55.706;37.816;2023-08-08T00:47:09;53.65;50.16;57.47;;
74470;Laerm;62918;55.706;37.816;2023-08-08T00:47:41;57.36;50.30;69.55;;
74470;Laerm;62918;55.706;37.816;2023-08-08T00:48:11;58.84;49.55;68.28;;
74470;Laerm;62918;55.706;37.816;2023-08-08T00:48:43;52.09;48.47;60.67;;
74470;Laerm;62918;55.706;37.816;2023-08-08T00:49:13;60.52;55.54;65.61;;
74470;Laerm;62918;55.706;37.816;2023-08-08T00:49:45;53.04;49.45;58.93;;
74470;Laerm;62918;55.706;37.816;2023-08-08T00:50:17;56.12;50.78;61.98;;
74470;Laerm;62918;55.706;37.816;2023-08-08T00:50:48;57.31;51.10;66.66;;
74470;Laerm;62918;55.706;37.816;2023-08-08T00:51:21;57.30;50.94;66.91;;
74470;Laerm;62918;55.706;37.816;2023-08-08T00:51:52;52.82;50.22;56.35;;
74470;Laerm;62918;55.706;37.816;2023-08-08T00:52:23;52.60;50.28;56.19;;
74470;Laerm;62918;55.706;37.816;2023-08-08T00:52:54;54.25;49.85;58.81;;
74470;Laerm;62918;55.706;37.816;2023-08-08T00:53:24;56.83;49.52;65.25;;
74470;Laerm;62918;55.706;37.816;2023-08-08T00:53:56;55.62;51.17;67.14;;
74470;Laerm;62918;55.706;37.816;2023-08-08T00:54:27;54.43;50.13;58.75;;
74470;Laerm;62918;55.706;37.816;2023-08-08T00:54:58;56.64;49.68;67.46;;
74470;Laerm;62918;55.706;37.816;2023-08-08T00:55:29;66.90;54.26;72.37;;
74470;Laerm;62918;55.706;37.816;2023-08-08T00:56:00;59.32;50.27;65.61;;
74470;Laerm;62918;55.706;37.816;2023-08-08T00:56:31;54.20;48.19;62.03;;
74470;Laerm;62918;55.706;37.816;2023-08-08T00:57:02;52.59;49.60;60.02;;
74470;Laerm;62918;55.706;37.816;2023-08-08T00:57:34;60.21;51.96;64.30;;
74470;Laerm;62918;55.706;37.816;2023-08-08T00:58:05;52.60;49.48;61.42;;
74470;Laerm;62918;55.706;37.816;2023-08-08T00:58:36;51.68;48.99;59.81;;
74470;Laerm;62918;55.706;37.816;2023-08-08T00:59:08;51.49;48.69;58.35;;
74470;Laerm;62918;55.706;37.816;2023-08-08T00:59:41;52.91;47.99;58.30;;
74470;Laerm;62918;55.706;37.816;2023-08-08T01:00:11;58.07;49.06;65.70;;
74470;Laerm;62918;55.706;37.816;2023-08-08T01:00:42;55.66;52.31;60.69;;
74470;Laerm;62918;55.706;37.816;2023-08-08T01:01:13;57.66;51.22;65.51;;
74470;Laerm;62918;55.706;37.816;2023-08-08T01:01:43;58.54;50.97;67.05;;
74470;Laerm;62918;55.706;37.816;2023-08-08T01:02:14;52.93;49.60;56.72;;
74470;Laerm;62918;55.706;37.816;2023-08-08T01:02:44;59.07;49.63;68.04;;
74470;Laerm;62918;55.706;37.816;2023-08-08T01:03:15;51.22;48.41;58.79;;
74470;Laerm;62918;55.706;37.816;2023-08-08T01:03:45;55.33;48.71;62.09;;
74470;Laerm;62918;55.706;37.816;2023-08-08T01:04:17;55.93;48.74;61.65;;
74470;Laerm;62918;55.706;37.816;2023-08-08T01:04:48;55.81;51.56;60.62;;
74470;Laerm;62918;55.706;37.816;2023-08-08T01:05:18;53.27;50.51;57.03;;
74470;Laerm;62918;55.706;37.816;2023-08-08T01:06:29;66.57;49.90;79.83;;
74470;Laerm;62918;55.706;37.816;2023-08-08T01:07:08;55.05;48.77;64.91;;
74470;Laerm;62918;55.706;37.816;2023-08-08T01:07:54;53.48;49.63;61.87;;
74470;Laerm;62918;55.706;37.816;2023-08-08T01:08:35;53.04;49.74;58.67;;
74470;Laerm;62918;55.706;37.816;2023-08-08T01:09:59;51.79;48.59;57.20;;
74470;Laerm;62918;55.706;37.816;2023-08-08T01:10:38;51.64;47.16;58.30;;
74470;Laerm;62918;55.706;37.816;2023-08-08T01:11:10;53.76;49.39;58.29;;
74470;Laerm;62918;55.706;37.816;2023-08-08T01:11:41;55.22;51.26;60.32;;
74470;Laerm;62918;55.706;37.816;2023-08-08T01:12:12;53.74;49.80;60.48;;
74470;Laerm;62918;55.706;37.816;2023-08-08T01:12:52;55.64;50.24;59.69;;
74470;Laerm;62918;55.706;37.816;2023-08-08T01:13:25;56.93;51.16;63.72;;
74470;Laerm;62918;55.706;37.816;2023-08-08T01:13:58;58.33;53.31;65.31;;
74470;Laerm;62918;55.706;37.816;2023-08-08T01:14:30;54.20;51.01;57.89;;
74470;Laerm;62918;55.706;37.816;2023-08-08T01:15:05;55.18;51.52;60.17;;
74470;Laerm;62918;55.706;37.816;2023-08-08T01:15:37;57.11;52.18;63.23;;
74470;Laerm;62918;55.706;37.816;2023-08-08T01:16:08;54.32;49.89;61.67;;
74470;Laerm;62918;55.706;37.816;2023-08-08T01:16:40;55.67;52.01;66.39;;
74470;Laerm;62918;55.706;37.816;2023-08-08T01:17:12;55.46;51.32;62.91;;
74470;Laerm;62918;55.706;37.816;2023-08-08T01:17:43;54.06;50.15;60.25;;
74470;Laerm;62918;55.706;37.816;2023-08-08T01:18:16;56.62;50.72;63.63;;
74470;Laerm;62918;55.706;37.816;2023-08-08T01:18:48;56.60;52.96;64.40;;
74470;Laerm;62918;55.706;37.816;2023-08-08T01:19:25;55.81;52.17;65.93;;
74470;Laerm;62918;55.706;37.816;2023-08-08T01:19:57;56.28;52.42;75.78;;
74470;Laerm;62918;55.706;37.816;2023-08-08T01:20:28;57.58;51.32;67.30;;
74470;Laerm;62918;55.706;37.816;2023-08-08T01:20:59;59.29;52.77;66.71;;
74470;Laerm;62918;55.706;37.816;2023-08-08T01:21:32;54.40;50.79;61.51;;
74470;Laerm;62918;55.706;37.816;2023-08-08T01:22:15;53.26;50.12;58.00;;
74470;Laerm;62918;55.706;37.816;2023-08-08T01:24:21;54.22;49.68;60.71;;
74470;Laerm;62918;55.706;37.816;2023-08-08T01:24:53;61.56;49.58;70.06;;
74470;Laerm;62918;55.706;37.816;2023-08-08T01:25:24;60.44;50.15;69.29;;
74470;Laerm;62918;55.706;37.816;2023-08-08T01:25:56;55.54;50.45;61.34;;
74470;Laerm;62918;55.706;37.816;2023-08-08T01:26:28;52.59;49.95;56.34;;
74470;Laerm;62918;55.706;37.816;2023-08-08T01:27:00;53.11;49.86;55.97;;
74470;Laerm;62918;55.706;37.816;2023-08-08T01:27:31;53.34;50.32;56.14;;
74470;Laerm;62918;55.706;37.816;2023-08-08T01:28:03;55.35;50.90;61.49;;
74470;Laerm;62918;55.706;37.816;2023-08-08T01:28:34;53.62;50.54;59.67;;
74470;Laerm;62918;55.706;37.816;2023-08-08T01:29:04;58.78;50.80;65.99;;
74470;Laerm;62918;55.706;37.816;2023-08-08T01:29:35;53.37;49.84;70.77;;
74470;Laerm;62918;55.706;37.816;2023-08-08T01:30:06;54.29;49.89;61.28;;
74470;Laerm;62918;55.706;37.816;2023-08-08T01:30:37;58.45;53.44;63.60;;
74470;Laerm;62918;55.706;37.816;2023-08-08T01:31:08;60.15;50.96;67.52;;
74470;Laerm;62918;55.706;37.816;2023-08-08T01:31:38;52.47;49.70;58.39;;
74470;Laerm;62918;55.706;37.816;2023-08-08T01:32:09;55.83;50.21;61.52;;
74470;Laerm;62918;55.706;37.816;2023-08-08T01:32:41;55.20;51.92;60.73;;
74470;Laerm;62918;55.706;37.816;2023-08-08T01:33:11;59.79;50.30;69.80;;
74470;Laerm;62918;55.706;37.816;2023-08-08T01:33:42;60.84;53.67;69.43;;
74470;Laerm;62918;55.706;37.816;2023-08-08T01:34:12;54.27;50.34;58.62;;
74470;Laerm;62918;55.706;37.816;2023-08-08T01:34:44;53.93;50.75;57.80;;
74470;Laerm;62918;55.706;37.816;2023-08-08T01:35:15;54.24;50.77;63.70;;
74470;Laerm;62918;55.706;37.816;2023-08-08T01:35:54;57.24;50.18;64.98;;
74470;Laerm;62918;55.706;37.816;2023-08-08T01:36:56;54.82;51.12;61.23;;
74470;Laerm;62918;55.706;37.816;2023-08-08T01:37:49;54.11;50.60;60.26;;
74470;Laerm;62918;55.706;37.816;2023-08-08T01:38:28;55.77;51.71;59.95;;
74470;Laerm;62918;55.706;37.816;2023-08-08T01:39:01;58.30;51.59;64.78;;
74470;Laerm;62918;55.706;37.816;2023-08-08T01:39:35;62.55;53.45;70.00;;
74470;Laerm;62918;55.706;37.816;2023-08-08T01:40:08;59.98;52.33;68.11;;
74470;Laerm;62918;55.706;37.816;2023-08-08T01:40:43;55.92;52.31;61.25;;
74470;Laerm;62918;55.706;37.816;2023-08-08T01:41:15;59.22;53.55;64.51;;
74470;Laerm;62918;55.706;37.816;2023-08-08T01:41:47;54.52;51.14;60.54;;
74470;Laerm;62918;55.706;37.816;2023-08-08T01:42:20;53.51;50.33;58.50;;
74470;Laerm;62918;55.706;37.816;2023-08-08T01:42:52;54.37;50.68;60.79;;
74470;Laerm;62918;55.706;37.816;2023-08-08T01:43:24;54.16;51.25;59.07;;
74470;Laerm;62918;55.706;37.816;2023-08-08T01:43:55;57.06;51.78;77.73;;
74470;Laerm;62918;55.706;37.816;2023-08-08T01:44:26;57.31;53.58;63.03;;
74470;Laerm;62918;55.706;37.816;2023-08-08T01:44:57;55.88;52.64;58.90;;
74470;Laerm;62918;55.706;37.816;2023-08-08T01:45:28;54.83;51.18;59.36;;
74470;Laerm;62918;55.706;37.816;2023-08-08T01:45:59;56.66;52.60;61.63;;
74470;Laerm;62918;55.706;37.816;2023-08-08T01:46:31;56.10;52.09;61.27;;
74470;Laerm;62918;55.706;37.816;2023-08-08T01:47:01;60.05;52.52;68.38;;
74470;Laerm;62918;55.706;37.816;2023-08-08T01:47:32;55.84;52.42;59.54;;
74470;Laerm;62918;55.706;37.816;2023-08-08T01:48:10;55.94;51.55;60.56;;
74470;Laerm;62918;55.706;37.816;2023-08-08T01:48:44;59.18;52.20;65.36;;
74470;Laerm;62918;55.706;37.816;2023-08-08T01:49:16;56.16;53.84;59.15;;
74470;Laerm;62918;55.706;37.816;2023-08-08T01:49:46;60.29;53.24;67.53;;
74470;Laerm;62918;55.706;37.816;2023-08-08T01:50:17;61.69;54.35;69.58;;
74470;Laerm;62918;55.706;37.816;2023-08-08T01:50:48;54.27;51.15;56.83;;
74470;Laerm;62918;55.706;37.816;2023-08-08T01:51:18;59.21;52.01;65.38;;
74470;Laerm;62918;55.706;37.816;2023-08-08T01:51:49;58.17;51.99;64.27;;
74470;Laerm;62918;55.706;37.816;2023-08-08T01:52:20;53.08;50.07;59.25;;
74470;Laerm;62918;55.706;37.816;2023-08-08T01:52:53;54.48;51.14;60.32;;
74470;Laerm;62918;55.706;37.816;2023-08-08T01:53:23;53.87;51.36;57.35;;
74470;Laerm;62918;55.706;37.816;2023-08-08T01:53:54;57.67;51.62;66.14;;
74470;Laerm;62918;55.706;37.816;2023-08-08T01:54:24;56.41;51.13;60.24;;
74470;Laerm;62918;55.706;37.816;2023-08-08T01:54:55;54.37;51.56;58.00;;
74470;Laerm;62918;55.706;37.816;2023-08-08T01:55:26;54.28;50.98;58.94;;
74470;Laerm;62918;55.706;37.816;2023-08-08T01:55:57;55.09;51.96;66.66;;
74470;Laerm;62918;55.706;37.816;2023-08-08T01:56:27;55.65;52.35;60.34;;
74470;Laerm;62918;55.706;37.816;2023-08-08T01:56:58;59.01;51.71;65.72;;
74470;Laerm;62918;55.706;37.816;2023-08-08T01:57:28;54.50;50.82;58.18;;
74470;Laerm;62918;55.706;37.816;2023-08-08T01:57:59;56.52;52.94;61.62;;
74470;Laerm;62918;55.706;37.816;2023-08-08T01:58:29;54.25;51.00;61.61;;
74470;Laerm;62918;55.706;37.816;2023-08-08T01:59:00;58.39;52.36;63.85;;
74470;Laerm;62918;55.706;37.816;2023-08-08T01:59:31;56.18;50.88;66.61;;
74470;Laerm;62918;55.706;37.816;2023-08-08T02:00:01;54.67;50.97;66.67;;
74470;Laerm;62918;55.706;37.816;2023-08-08T02:00:36;57.24;51.84;64.45;;
74470;Laerm;62918;55.706;37.816;2023-08-08T02:01:07;55.41;51.78;60.45;;
74470;Laerm;62918;55.706;37.816;2023-08-08T02:01:37;59.35;53.38;65.22;;
74470;Laerm;62918;55.706;37.816;2023-08-08T02:02:08;65.01;56.48;70.03;;
74470;Laerm;62918;55.706;37.816;2023-08-08T02:02:38;56.86;53.35;61.22;;
74470;Laerm;62918;55.706;37.816;2023-08-08T02:03:09;61.22;52.38;69.53;;
74470;Laerm;62918;55.706;37.816;2023-08-08T02:03:39;54.85;51.32;59.15;;
74470;Laerm;62918;55.706;37.816;2023-08-08T02:04:10;55.67;51.99;61.80;;
74470;Laerm;62918;55.706;37.816;2023-08-08T02:04:40;61.73;53.32;67.30;;
74470;Laerm;62918;55.706;37.816;2023-08-08T02:05:11;58.29;52.66;62.84;;
74470;Laerm;62918;55.706;37.816;2023-08-08T02:05:41;60.55;54.48;66.51;;
74470;Laerm;62918;55.706;37.816;2023-08-08T02:06:12;56.13;51.42;61.26;;
74470;Laerm;62918;55.706;37.816;2023-08-08T02:06:42;55.47;51.68;59.74;;
74470;Laerm;62918;55.706;37.816;2023-08-08T02:07:13;58.54;53.31;64.14;;
74470;Laerm;62918;55.706;37.816;2023-08-08T02:07:44;54.89;51.89;58.28;;
74470;Laerm;62918;55.706;37.816;2023-08-08T02:08:14;56.08;52.14;60.58;;
74470;Laerm;62918;55.706;37.816;2023-08-08T02:08:45;55.64;51.40;67.49;;
74470;Laerm;62918;55.706;37.816;2023-08-08T02:09:16;55.89;52.63;59.25;;
74470;Laerm;62918;55.706;37.816;2023-08-08T02:09:46;56.41;52.75;62.98;;
74470;Laerm;62918;55.706;37.816;2023-08-08T02:10:17;59.51;51.90;68.29;;
74470;Laerm;62918;55.706;37.816;2023-08-08T02:10:47;55.99;52.02;60.53;;
74470;Laerm;62918;55.706;37.816;2023-08-08T02:11:18;56.24;52.94;61.97;;
74470;Laerm;62918;55.706;37.816;2023-08-08T02:11:48;57.60;52.26;65.41;;
74470;Laerm;62918;55.706;37.816;2023-08-08T02:12:19;60.76;54.09;69.15;;
74470;Laerm;62918;55.706;37.816;2023-08-08T02:12:49;55.66;52.70;58.97;;
74470;Laerm;62918;55.706;37.816;2023-08-08T02:13:20;54.72;51.11;59.08;;
74470;Laerm;62918;55.706;37.816;2023-08-08T02:13:51;57.77;53.82;62.18;;
74470;Laerm;62918;55.706;37.816;2023-08-08T02:14:21;57.29;51.33;66.38;;
74470;Laerm;62918;55.706;37.816;2023-08-08T02:14:52;53.45;50.52;59.66;;
74470;Laerm;62918;55.706;37.816;2023-08-08T02:15:22;56.38;50.37;63.25;;
74470;Laerm;62918;55.706;37.816;2023-08-08T02:15:53;57.25;53.92;62.52;;
74470;Laerm;62918;55.706;37.816;2023-08-08T02:16:23;60.75;54.22;70.93;;
74470;Laerm;62918;55.706;37.816;2023-08-08T02:16:54;61.77;53.99;67.49;;
74470;Laerm;62918;55.706;37.816;2023-08-08T02:17:25;56.03;52.74;62.81;;
74470;Laerm;62918;55.706;37.816;2023-08-08T02:17:56;54.54;51.88;60.29;;
74470;Laerm;62918;55.706;37.816;2023-08-08T02:18:27;57.69;52.10;63.02;;
74470;Laerm;62918;55.706;37.816;2023-08-08T02:18:57;58.57;53.44;64.72;;
74470;Laerm;62918;55.706;37.816;2023-08-08T02:19:28;55.95;52.45;60.22;;
74470;Laerm;62918;55.706;37.816;2023-08-08T02:19:59;54.88;52.14;58.77;;
74470;Laerm;62918;55.706;37.816;2023-08-08T02:20:30;57.72;51.83;63.85;;
74470;Laerm;62918;55.706;37.816;2023-08-08T02:21:00;59.37;52.61;66.56;;
74470;Laerm;62918;55.706;37.816;2023-08-08T02:21:31;60.21;54.09;65.73;;
74470;Laerm;62918;55.706;37.816;2023-08-08T02:22:01;56.85;52.14;61.42;;
74470;Laerm;62918;55.706;37.816;2023-08-08T02:22:32;53.72;50.47;56.60;;
74470;Laerm;62918;55.706;37.816;2023-08-08T02:23:03;62.03;51.78;68.42;;
74470;Laerm;62918;55.706;37.816;2023-08-08T02:23:34;57.53;52.82;65.07;;
74470;Laerm;62918;55.706;37.816;2023-08-08T02:24:04;55.40;52.24;60.47;;
74470;Laerm;62918;55.706;37.816;2023-08-08T02:24:35;60.36;54.59;64.87;;
74470;Laerm;62918;55.706;37.816;2023-08-08T02:25:06;56.55;53.36;61.24;;
74470;Laerm;62918;55.706;37.816;2023-08-08T02:25:36;59.64;54.67;70.19;;
74470;Laerm;62918;55.706;37.816;2023-08-08T02:26:07;64.76;55.95;74.56;;
74470;Laerm;62918;55.706;37.816;2023-08-08T02:26:38;55.82;52.42;58.94;;
74470;Laerm;62918;55.706;37.816;2023-08-08T02:27:08;59.15;54.50;66.91;;
74470;Laerm;62918;55.706;37.816;2023-08-08T02:27:39;64.85;57.09;72.80;;
74470;Laerm;62918;55.706;37.816;2023-08-08T02:28:10;58.65;53.11;62.74;;
74470;Laerm;62918;55.706;37.816;2023-08-08T02:28:40;58.77;54.47;62.42;;
74470;Laerm;62918;55.706;37.816;2023-08-08T02:29:11;57.99;52.71;67.76;;
74470;Laerm;62918;55.706;37.816;2023-08-08T02:29:41;58.60;50.98;66.07;;
74470;Laerm;62918;55.706;37.816;2023-08-08T02:30:12;53.72;50.65;57.07;;
74470;Laerm;62918;55.706;37.816;2023-08-08T02:30:44;58.81;53.77;63.69;;
74470;Laerm;62918;55.706;37.816;2023-08-08T02:31:14;56.53;52.80;61.97;;
74470;Laerm;62918;55.706;37.816;2023-08-08T02:31:50;54.14;51.40;59.07;;
74470;Laerm;62918;55.706;37.816;2023-08-08T02:32:21;54.81;51.42;60.18;;
74470;Laerm;62918;55.706;37.816;2023-08-08T02:32:51;53.78;51.23;62.71;;
74470;Laerm;62918;55.706;37.816;2023-08-08T02:33:22;63.27;53.08;72.67;;
74470;Laerm;62918;55.706;37.816;2023-08-08T02:33:52;56.75;50.65;63.29;;
74470;Laerm;62918;55.706;37.816;2023-08-08T02:34:23;52.81;50.15;55.68;;
74470;Laerm;62918;55.706;37.816;2023-08-08T02:34:54;59.38;51.13;65.83;;
74470;Laerm;62918;55.706;37.816;2023-08-08T02:35:24;58.00;52.07;69.70;;
74470;Laerm;62918;55.706;37.816;2023-08-08T02:35:55;56.84;53.37;61.65;;
74470;Laerm;62918;55.706;37.816;2023-08-08T02:36:26;58.30;54.05;62.25;;
74470;Laerm;62918;55.706;37.816;2023-08-08T02:36:57;59.84;55.42;64.83;;
74470;Laerm;62918;55.706;37.816;2023-08-08T02:37:27;63.02;53.55;71.10;;
74470;Laerm;62918;55.706;37.816;2023-08-08T02:37:58;63.70;54.60;69.80;;
74470;Laerm;62918;55.706;37.816;2023-08-08T02:38:28;58.34;52.32;66.74;;
74470;Laerm;62918;55.706;37.816;2023-08-08T02:38:59;56.67;52.32;65.55;;
74470;Laerm;62918;55.706;37.816;2023-08-08T02:39:29;54.02;50.77;57.02;;
74470;Laerm;62918;55.706;37.816;2023-08-08T02:40:00;58.57;52.66;64.64;;
74470;Laerm;62918;55.706;37.816;2023-08-08T02:40:31;57.87;51.83;65.55;;
74470;Laerm;62918;55.706;37.816;2023-08-08T02:41:03;57.30;51.67;60.52;;
74470;Laerm;62918;55.706;37.816;2023-08-08T02:41:33;58.12;52.17;64.17;;
74470;Laerm;62918;55.706;37.816;2023-08-08T02:42:04;64.07;52.65;70.29;;
74470;Laerm;62918;55.706;37.816;2023-08-08T02:42:35;60.26;53.98;69.51;;
74470;Laerm;62918;55.706;37.816;2023-08-08T02:43:06;64.58;56.65;72.33;;
74470;Laerm;62918;55.706;37.816;2023-08-08T02:43:36;57.20;53.28;63.47;;
74470;Laerm;62918;55.706;37.816;2023-08-08T02:44:07;63.17;55.31;69.49;;
74470;Laerm;62918;55.706;37.816;2023-08-08T02:44:37;58.62;53.04;66.26;;
74470;Laerm;62918;55.706;37.816;2023-08-08T02:45:08;59.49;52.20;64.76;;
74470;Laerm;62918;55.706;37.816;2023-08-08T02:45:38;53.98;50.45;61.34;;
74470;Laerm;62918;55.706;37.816;2023-08-08T02:46:09;55.00;51.21;59.84;;
74470;Laerm;62918;55.706;37.816;2023-08-08T02:46:39;58.21;53.18;65.32;;
74470;Laerm;62918;55.706;37.816;2023-08-08T02:47:10;62.52;56.35;69.45;;
74470;Laerm;62918;55.706;37.816;2023-08-08T02:47:40;63.96;55.72;70.91;;
74470;Laerm;62918;55.706;37.816;2023-08-08T02:48:11;65.78;54.49;72.18;;
74470;Laerm;62918;55.706;37.816;2023-08-08T02:48:42;58.74;54.29;67.97;;
74470;Laerm;62918;55.706;37.816;2023-08-08T02:49:12;58.10;53.54;63.91;;
74470;Laerm;62918;55.706;37.816;2023-08-08T02:49:43;63.16;52.74;69.45;;
74470;Laerm;62918;55.706;37.816;2023-08-08T02:50:13;58.27;52.92;65.36;;
74470;Laerm;62918;55.706;37.816;2023-08-08T02:50:44;65.85;54.78;86.72;;
74470;Laerm;62918;55.706;37.816;2023-08-08T02:51:14;58.85;53.27;66.85;;
74470;Laerm;62918;55.706;37.816;2023-08-08T02:51:44;62.69;54.38;70.18;;
74470;Laerm;62918;55.706;37.816;2023-08-08T02:52:15;56.61;53.40;61.11;;
74470;Laerm;62918;55.706;37.816;2023-08-08T02:52:46;57.74;53.47;63.23;;
74470;Laerm;62918;55.706;37.816;2023-08-08T02:53:16;61.34;56.46;66.26;;
74470;Laerm;62918;55.706;37.816;2023-08-08T02:53:46;59.43;53.53;64.67;;
74470;Laerm;62918;55.706;37.816;2023-08-08T02:54:17;62.56;53.10;69.98;;
74470;Laerm;62918;55.706;37.816;2023-08-08T02:54:48;64.80;55.50;74.69;;
74470;Laerm;62918;55.706;37.816;2023-08-08T02:55:18;60.12;55.01;71.19;;
74470;Laerm;62918;55.706;37.816;2023-08-08T02:55:49;60.70;54.17;67.06;;